Time;durP1;ratioP1;P1;durP2;ratioP2;P2;SDS_P1;SDS_P2;PMS_P1;PMS_P2;Temp;Humidity;BMP_temperature;BMP_pressure;BME280_temperature;BME280_humidity;BME280_pressure;Samples;Min_cycle;Max_cycle;Signal;HPM_P1;HPM_P2
2023/11/29 00:00:10;;;;;;;6.50;3.55;;;;;;;;;;5052336;23;20020;-71
2023/11/29 00:02:55;;;;;;;7.07;3.72;;;;;;;;;;5032559;28;20033;-69
2023/11/29 00:05:42;;;;;;;8.77;4.88;;;;;;;;;;5033943;28;20091;-69
2023/11/29 00:08:27;;;;;;;7.85;3.80;;;;;;;;;;5018913;28;20014;-69
2023/11/29 00:11:13;;;;;;;6.70;4.18;;;;;;;;;;5029532;28;20155;-69
2023/11/29 00:13:58;;;;;;;9.45;4.15;;;;;;;;;;5023803;28;20513;-69
2023/11/29 00:16:44;;;;;;;8.73;3.63;;;;;;;;;;4999872;28;20446;-69
2023/11/29 00:19:30;;;;;;;9.23;4.03;;;;;;;;;;5013085;28;20030;-69
2023/11/29 00:22:15;;;;;;;9.60;4.50;;;;;;;;;;5024850;28;20049;-69
2023/11/29 00:25:01;;;;;;;7.07;4.35;;;;;;;;;;5017323;28;20065;-69
2023/11/29 00:27:47;;;;;;;9.93;4.07;;;;;;;;;;5018871;28;20479;-69
2023/11/29 00:30:32;;;;;;;11.15;4.25;;;;;;;;;;5031160;28;20045;-69
2023/11/29 00:33:18;;;;;;;12.65;3.97;;;;;;;;;;5029720;28;20041;-68
2023/11/29 00:36:04;;;;;;;10.10;4.05;;;;;;;;;;5012919;28;20112;-68
2023/11/29 00:38:50;;;;;;;5.63;3.30;;;;;;;;;;5012807;28;20047;-68
2023/11/29 00:41:35;;;;;;;8.45;4.38;;;;;;;;;;4998016;28;20163;-68
2023/11/29 00:44:21;;;;;;;7.45;3.95;;;;;;;;;;5012534;28;20033;-68
2023/11/29 00:47:06;;;;;;;8.05;4.80;;;;;;;;;;5012756;28;20033;-68
2023/11/29 00:49:52;;;;;;;8.38;3.88;;;;;;;;;;5012330;28;20034;-68
2023/11/29 00:52:38;;;;;;;8.23;4.50;;;;;;;;;;4997947;28;20064;-68
2023/11/29 00:55:23;;;;;;;7.72;3.78;;;;;;;;;;5012243;28;20132;-68
2023/11/29 00:58:09;;;;;;;7.65;4.15;;;;;;;;;;5008029;28;20037;-68
2023/11/29 01:00:55;;;;;;;10.40;4.50;;;;;;;;;;4993179;28;20034;-68
2023/11/29 01:03:40;;;;;;;7.03;3.78;;;;;;;;;;4997817;28;20096;-68
2023/11/29 01:06:26;;;;;;;9.40;3.85;;;;;;;;;;5001862;28;20080;-68
2023/11/29 01:09:12;;;;;;;9.13;4.25;;;;;;;;;;5010877;28;20030;-68
2023/11/29 01:11:57;;;;;;;8.63;4.82;;;;;;;;;;4996632;28;20480;-68
2023/11/29 01:14:43;;;;;;;8.93;5.15;;;;;;;;;;4997593;28;20116;-68
2023/11/29 01:17:29;;;;;;;18.67;5.40;;;;;;;;;;5012575;28;20030;-68
2023/11/29 01:20:15;;;;;;;13.38;6.45;;;;;;;;;;5011107;28;20022;-68
2023/11/29 01:23:00;;;;;;;14.93;7.07;;;;;;;;;;4992077;28;20030;-68
2023/11/29 01:25:46;;;;;;;18.20;7.15;;;;;;;;;;4992584;28;20483;-68
2023/11/29 01:28:32;;;;;;;14.13;5.75;;;;;;;;;;4992875;28;20573;-68
2023/11/29 01:31:18;;;;;;;10.23;5.43;;;;;;;;;;4992772;28;20396;-68
2023/11/29 01:34:04;;;;;;;8.75;4.72;;;;;;;;;;4992408;28;20026;-68
2023/11/29 01:36:50;;;;;;;9.73;4.03;;;;;;;;;;4993673;28;20019;-68
2023/11/29 01:39:35;;;;;;;9.15;5.68;;;;;;;;;;4992809;28;20025;-68
2023/11/29 01:42:21;;;;;;;6.03;3.58;;;;;;;;;;4992109;28;20452;-68
2023/11/29 01:45:07;;;;;;;9.10;4.53;;;;;;;;;;4993053;28;20114;-68
2023/11/29 01:47:53;;;;;;;10.82;4.47;;;;;;;;;;4978304;28;20427;-68
2023/11/29 01:50:39;;;;;;;8.40;3.92;;;;;;;;;;4993023;28;20077;-68
2023/11/29 01:53:29;;;;;;;11.73;4.15;;;;;;;;;;4992391;28;20027;-68
2023/11/29 01:56:16;;;;;;;8.05;4.00;;;;;;;;;;4993020;28;20026;-68
2023/11/29 01:59:02;;;;;;;8.43;3.75;;;;;;;;;;4992491;28;20030;-68
2023/11/29 02:01:48;;;;;;;11.00;4.35;;;;;;;;;;4992770;28;20038;-68
2023/11/29 02:04:33;;;;;;;9.73;4.25;;;;;;;;;;4996331;28;20030;-68
2023/11/29 02:07:19;;;;;;;11.07;4.00;;;;;;;;;;4996667;28;20480;-68
2023/11/29 02:10:05;;;;;;;7.30;3.90;;;;;;;;;;4981912;28;20026;-68
2023/11/29 02:12:51;;;;;;;8.35;3.92;;;;;;;;;;4996820;28;20506;-68
2023/11/29 02:15:37;;;;;;;7.85;4.13;;;;;;;;;;4996244;28;20061;-68
2023/11/29 02:18:23;;;;;;;7.93;4.00;;;;;;;;;;4997118;28;20480;-68
2023/11/29 02:21:08;;;;;;;8.80;4.30;;;;;;;;;;4996078;28;20480;-68
2023/11/29 02:24:04;;;;;;;11.10;5.13;;;;;;;;;;4981232;28;20026;-68
2023/11/29 02:26:50;;;;;;;10.32;4.82;;;;;;;;;;4996394;28;20117;-68
2023/11/29 02:29:36;;;;;;;8.88;4.28;;;;;;;;;;4996243;28;20030;-68
2023/11/29 02:32:22;;;;;;;10.63;4.95;;;;;;;;;;4995933;28;20026;-68
2023/11/29 02:35:07;;;;;;;6.40;3.80;;;;;;;;;;4995424;28;20483;-68
2023/11/29 02:37:53;;;;;;;15.00;5.15;;;;;;;;;;4996326;28;20022;-68
2023/11/29 02:40:39;;;;;;;9.82;5.60;;;;;;;;;;4981242;28;20054;-68
2023/11/29 02:43:24;;;;;;;10.50;4.00;;;;;;;;;;4995689;28;20165;-68
2023/11/29 02:46:10;;;;;;;10.30;4.43;;;;;;;;;;4996081;28;20085;-68
2023/11/29 02:52:37;;;;;;;6.32;3.67;;;;;;;;;;5010201;28;20442;-68
2023/11/29 02:55:23;;;;;;;9.10;5.07;;;;;;;;;;5012925;28;20030;-68
2023/11/29 02:58:08;;;;;;;10.27;4.07;;;;;;;;;;5010997;28;20017;-68
2023/11/29 03:00:54;;;;;;;10.73;4.70;;;;;;;;;;5011054;28;20030;-68
2023/11/29 03:03:39;;;;;;;9.20;4.20;;;;;;;;;;5005561;28;20547;-68
2023/11/29 03:06:25;;;;;;;8.00;3.78;;;;;;;;;;5033448;28;20348;-68
2023/11/29 03:09:11;;;;;;;8.15;4.20;;;;;;;;;;5033585;28;20114;-68
2023/11/29 03:11:56;;;;;;;9.20;3.63;;;;;;;;;;5032139;28;20115;-68
2023/11/29 03:14:42;;;;;;;7.53;4.47;;;;;;;;;;5029421;28;20030;-68
2023/11/29 03:17:27;;;;;;;7.18;4.88;;;;;;;;;;5014020;28;20080;-68
2023/11/29 03:20:13;;;;;;;8.90;3.90;;;;;;;;;;5005692;28;20026;-68
2023/11/29 03:22:59;;;;;;;9.80;4.80;;;;;;;;;;4995505;28;20105;-68
2023/11/29 03:25:44;;;;;;;6.50;4.03;;;;;;;;;;4997105;28;20499;-68
2023/11/29 03:28:30;;;;;;;8.32;4.35;;;;;;;;;;5012471;28;20026;-68
2023/11/29 03:31:16;;;;;;;5.82;3.47;;;;;;;;;;4999951;28;20036;-68
2023/11/29 03:34:01;;;;;;;7.07;4.18;;;;;;;;;;4994511;28;20062;-68
2023/11/29 03:36:47;;;;;;;6.50;3.47;;;;;;;;;;4979113;28;20118;-68
2023/11/29 03:39:33;;;;;;;6.88;3.83;;;;;;;;;;5026281;28;20123;-68
2023/11/29 03:42:19;;;;;;;7.00;4.13;;;;;;;;;;5033408;28;20099;-68
2023/11/29 03:45:05;;;;;;;10.30;4.43;;;;;;;;;;5022213;28;20028;-68
2023/11/29 03:47:50;;;;;;;8.60;4.20;;;;;;;;;;5009537;28;20032;-68
2023/11/29 03:50:36;;;;;;;6.70;4.00;;;;;;;;;;5024029;28;20116;-68
2023/11/29 03:53:21;;;;;;;7.45;4.28;;;;;;;;;;5034071;28;20471;-68
2023/11/29 03:56:07;;;;;;;6.45;3.45;;;;;;;;;;5031390;28;20022;-68
2023/11/29 03:58:53;;;;;;;9.80;4.22;;;;;;;;;;5020697;28;20014;-68
2023/11/29 04:01:38;;;;;;;8.85;3.97;;;;;;;;;;5031758;28;20044;-68
2023/11/29 04:04:24;;;;;;;8.70;4.55;;;;;;;;;;5031356;28;20033;-68
2023/11/29 04:07:12;;;;;;;7.82;3.63;;;;;;;;;;5032853;28;20537;-68
2023/11/29 04:09:57;;;;;;;6.22;3.80;;;;;;;;;;5022952;28;20025;-68
2023/11/29 04:12:43;;;;;;;7.30;3.33;;;;;;;;;;4997196;28;20499;-68
2023/11/29 04:15:28;;;;;;;5.65;3.97;;;;;;;;;;4995276;28;20403;-68
2023/11/29 04:18:14;;;;;;;7.13;3.80;;;;;;;;;;4994142;28;20122;-68
2023/11/29 04:21:00;;;;;;;8.20;4.70;;;;;;;;;;4995533;28;20033;-68
2023/11/29 04:23:46;;;;;;;11.07;4.35;;;;;;;;;;4998323;28;20026;-68
2023/11/29 04:26:33;;;;;;;10.30;5.07;;;;;;;;;;5011914;28;20033;-68
2023/11/29 04:29:19;;;;;;;8.32;4.28;;;;;;;;;;5013576;28;20083;-68
2023/11/29 04:32:04;;;;;;;6.65;3.90;;;;;;;;;;5012347;28;20041;-68
2023/11/29 04:34:50;;;;;;;8.43;4.20;;;;;;;;;;5013179;28;20026;-68
2023/11/29 04:37:36;;;;;;;7.47;3.88;;;;;;;;;;5005068;28;20030;-68
2023/11/29 04:40:21;;;;;;;7.00;4.10;;;;;;;;;;4994815;28;20035;-68
2023/11/29 04:43:07;;;;;;;7.07;4.50;;;;;;;;;;5016012;28;20049;-68
2023/11/29 04:45:52;;;;;;;13.02;4.47;;;;;;;;;;5013124;28;20028;-68
2023/11/29 04:48:38;;;;;;;10.68;5.55;;;;;;;;;;5012426;28;20479;-68
2023/11/29 04:51:24;;;;;;;10.35;5.35;;;;;;;;;;5012383;28;20030;-68
2023/11/29 04:54:09;;;;;;;9.68;5.20;;;;;;;;;;5012721;28;20022;-68
2023/11/29 04:56:55;;;;;;;13.25;6.35;;;;;;;;;;5012585;28;20499;-68
2023/11/29 04:59:41;;;;;;;11.52;5.45;;;;;;;;;;5012700;28;20052;-68
2023/11/29 05:02:26;;;;;;;12.38;6.18;;;;;;;;;;5011623;28;20099;-68
2023/11/29 05:05:12;;;;;;;12.05;4.93;;;;;;;;;;4994601;28;20506;-68
2023/11/29 05:07:58;;;;;;;11.07;4.88;;;;;;;;;;4993903;28;20122;-68
2023/11/29 05:10:44;;;;;;;9.25;5.47;;;;;;;;;;4997050;28;20022;-68
2023/11/29 05:13:32;;;;;;;13.20;4.65;;;;;;;;;;4998742;28;20101;-68
2023/11/29 05:16:18;;;;;;;14.10;5.97;;;;;;;;;;5011963;28;20052;-68
2023/11/29 05:19:05;;;;;;;12.80;5.72;;;;;;;;;;4995019;28;20401;-68
2023/11/29 05:21:51;;;;;;;12.43;5.03;;;;;;;;;;4978150;28;20031;-68
2023/11/29 05:24:37;;;;;;;12.43;5.70;;;;;;;;;;5025326;28;20494;-68
2023/11/29 05:27:23;;;;;;;8.77;5.15;;;;;;;;;;5032061;28;20387;-68
2023/11/29 05:30:10;;;;;;;9.73;4.70;;;;;;;;;;5019504;28;20507;-68
2023/11/29 05:32:55;;;;;;;7.75;4.70;;;;;;;;;;5006468;28;20077;-67
2023/11/29 05:35:43;;;;;;;7.82;4.68;;;;;;;;;;5012054;28;20107;-67
2023/11/29 05:38:28;;;;;;;11.00;4.90;;;;;;;;;;5013873;28;20021;-68
2023/11/29 05:41:15;;;;;;;10.50;4.38;;;;;;;;;;5015903;28;20101;-67
2023/11/29 05:44:01;;;;;;;9.43;4.72;;;;;;;;;;5015805;28;20033;-67
2023/11/29 05:46:46;;;;;;;7.43;4.20;;;;;;;;;;5015177;28;20029;-67
2023/11/29 05:49:32;;;;;;;12.77;4.45;;;;;;;;;;5015600;28;20071;-67
2023/11/29 05:52:18;;;;;;;8.95;3.90;;;;;;;;;;5017378;28;20069;-67
2023/11/29 05:55:05;;;;;;;8.95;4.35;;;;;;;;;;4981756;28;20026;-67
2023/11/29 05:57:51;;;;;;;12.07;4.57;;;;;;;;;;5010794;28;20566;-67
2023/11/29 06:00:36;;;;;;;9.80;5.20;;;;;;;;;;5039806;23;20474;-68
2023/11/29 06:03:25;;;;;;;8.43;4.18;;;;;;;;;;5019232;28;20038;-68
2023/11/29 06:06:11;;;;;;;6.75;3.45;;;;;;;;;;5001450;28;20026;-68
2023/11/29 06:08:57;;;;;;;6.13;4.55;;;;;;;;;;5001881;28;20117;-68
2023/11/29 06:11:43;;;;;;;7.22;4.13;;;;;;;;;;5016681;28;20030;-68
2023/11/29 06:14:28;;;;;;;8.43;4.25;;;;;;;;;;5016687;28;20022;-68
2023/11/29 06:17:14;;;;;;;7.72;4.38;;;;;;;;;;5010220;28;20049;-68
2023/11/29 06:20:00;;;;;;;6.38;4.68;;;;;;;;;;5014989;28;20030;-68
2023/11/29 06:22:45;;;;;;;7.75;4.22;;;;;;;;;;5015638;28;20034;-68
2023/11/29 06:25:31;;;;;;;7.10;3.53;;;;;;;;;;5015946;28;20025;-68
2023/11/29 06:28:17;;;;;;;9.05;4.47;;;;;;;;;;5016333;28;20026;-68
2023/11/29 06:31:03;;;;;;;8.30;4.45;;;;;;;;;;5001202;28;20487;-68
2023/11/29 06:33:49;;;;;;;8.90;4.90;;;;;;;;;;5015727;28;20033;-68
2023/11/29 06:36:34;;;;;;;8.32;5.22;;;;;;;;;;5016596;28;20076;-68
2023/11/29 06:39:21;;;;;;;10.95;4.70;;;;;;;;;;5015755;28;20109;-68
2023/11/29 06:42:06;;;;;;;11.98;5.88;;;;;;;;;;5015757;28;20029;-68
2023/11/29 06:44:52;;;;;;;5.85;4.15;;;;;;;;;;5015628;28;20029;-68
2023/11/29 06:47:38;;;;;;;9.30;4.55;;;;;;;;;;5015166;28;20109;-68
2023/11/29 06:50:23;;;;;;;5.93;4.00;;;;;;;;;;4999900;28;20403;-68
2023/11/29 06:53:09;;;;;;;10.43;5.10;;;;;;;;;;5016219;28;20030;-68
2023/11/29 06:55:55;;;;;;;8.90;5.18;;;;;;;;;;4996866;28;20089;-68
2023/11/29 06:58:41;;;;;;;6.57;4.15;;;;;;;;;;4996322;28;20105;-68
2023/11/29 07:01:26;;;;;;;10.15;5.63;;;;;;;;;;4994857;28;20045;-68
2023/11/29 07:04:12;;;;;;;7.38;4.82;;;;;;;;;;4995830;28;20507;-68
2023/11/29 07:06:59;;;;;;;10.73;5.20;;;;;;;;;;4995824;28;20019;-68
2023/11/29 07:09:45;;;;;;;9.10;4.68;;;;;;;;;;5012823;28;20045;-68
2023/11/29 07:12:32;;;;;;;9.30;5.18;;;;;;;;;;5015233;28;20030;-68
2023/11/29 07:15:17;;;;;;;10.75;4.63;;;;;;;;;;5012662;28;20399;-68
2023/11/29 07:18:03;;;;;;;10.23;4.43;;;;;;;;;;5010297;28;20080;-68
2023/11/29 07:20:49;;;;;;;10.27;4.50;;;;;;;;;;5015072;28;20519;-68
2023/11/29 07:23:34;;;;;;;7.93;4.88;;;;;;;;;;5000805;28;20411;-68
2023/11/29 07:26:20;;;;;;;8.25;5.15;;;;;;;;;;5015393;28;20030;-68
2023/11/29 07:29:06;;;;;;;9.82;4.80;;;;;;;;;;5014536;28;20029;-68
2023/11/29 07:31:54;;;;;;;6.75;4.18;;;;;;;;;;5000047;28;20392;-68
2023/11/29 07:34:43;;;;;;;11.90;4.57;;;;;;;;;;5015761;28;20026;-68
2023/11/29 07:37:29;;;;;;;8.75;3.78;;;;;;;;;;5015998;28;20018;-68
2023/11/29 07:40:15;;;;;;;12.27;5.13;;;;;;;;;;5014375;28;20025;-68
2023/11/29 07:43:00;;;;;;;10.75;5.07;;;;;;;;;;5015807;28;20390;-68
2023/11/29 07:45:47;;;;;;;7.68;4.15;;;;;;;;;;5015649;28;20032;-68
2023/11/29 07:48:33;;;;;;;11.23;4.85;;;;;;;;;;5015540;28;20057;-68
2023/11/29 07:51:24;;;;;;;9.02;4.80;;;;;;;;;;5015095;28;20088;-68
2023/11/29 07:54:09;;;;;;;10.60;5.25;;;;;;;;;;5015385;28;20026;-68
2023/11/29 07:56:55;;;;;;;8.93;4.97;;;;;;;;;;5014321;28;20025;-68
2023/11/29 07:59:41;;;;;;;12.13;5.07;;;;;;;;;;5014685;28;20033;-68
2023/11/29 08:02:26;;;;;;;8.70;4.50;;;;;;;;;;5014217;28;20165;-68
2023/11/29 08:05:12;;;;;;;15.05;5.78;;;;;;;;;;5014130;28;20022;-68
2023/11/29 08:07:58;;;;;;;13.55;5.80;;;;;;;;;;5015100;28;20089;-68
2023/11/29 08:10:43;;;;;;;8.85;5.00;;;;;;;;;;5014227;28;20538;-68
2023/11/29 08:13:29;;;;;;;10.93;4.80;;;;;;;;;;5014576;28;20030;-68
2023/11/29 08:16:15;;;;;;;11.23;4.70;;;;;;;;;;5014203;28;20113;-68
2023/11/29 08:19:00;;;;;;;9.80;4.82;;;;;;;;;;4999186;28;20026;-68
2023/11/29 08:21:46;;;;;;;11.02;5.72;;;;;;;;;;4999361;28;20457;-68
2023/11/29 08:24:32;;;;;;;10.27;5.10;;;;;;;;;;5014995;28;20427;-68
2023/11/29 08:27:19;;;;;;;11.23;6.00;;;;;;;;;;4999421;28;20017;-68
2023/11/29 08:30:05;;;;;;;7.85;4.88;;;;;;;;;;5013968;28;20049;-69
2023/11/29 08:32:51;;;;;;;12.10;4.63;;;;;;;;;;5000702;28;20026;-68
2023/11/29 08:35:37;;;;;;;11.10;5.18;;;;;;;;;;5014406;28;20072;-68
2023/11/29 08:38:23;;;;;;;8.18;4.70;;;;;;;;;;5014378;28;20018;-68
2023/11/29 08:41:09;;;;;;;11.20;5.65;;;;;;;;;;5000444;28;20042;-68
2023/11/29 08:43:55;;;;;;;9.98;4.95;;;;;;;;;;5013923;28;20037;-68
2023/11/29 08:46:40;;;;;;;13.00;6.72;;;;;;;;;;5013814;28;20119;-68
2023/11/29 08:49:26;;;;;;;12.15;6.28;;;;;;;;;;5014154;28;20037;-68
2023/11/29 08:52:13;;;;;;;11.20;5.20;;;;;;;;;;5010293;28;20041;-68
2023/11/29 08:54:59;;;;;;;13.70;6.50;;;;;;;;;;4993940;28;20019;-69
2023/11/29 08:57:45;;;;;;;12.60;5.05;;;;;;;;;;4979057;28;20165;-68
2023/11/29 09:00:30;;;;;;;15.95;5.78;;;;;;;;;;5001733;28;20057;-68
2023/11/29 09:03:17;;;;;;;8.52;4.78;;;;;;;;;;4993108;28;20030;-68
2023/11/29 09:06:02;;;;;;;9.75;4.88;;;;;;;;;;4993960;28;20034;-69
2023/11/29 09:08:48;;;;;;;10.60;5.18;;;;;;;;;;4997079;28;20072;-69
2023/11/29 09:11:34;;;;;;;11.10;5.55;;;;;;;;;;4994601;28;20042;-69
2023/11/29 09:14:20;;;;;;;9.70;5.35;;;;;;;;;;4996243;28;20018;-68
2023/11/29 09:17:05;;;;;;;12.27;5.20;;;;;;;;;;4986244;28;20026;-69
2023/11/29 09:19:53;;;;;;;9.65;4.35;;;;;;;;;;4993595;28;20053;-68
2023/11/29 09:22:39;;;;;;;10.23;5.07;;;;;;;;;;5003555;28;20052;-68
2023/11/29 09:25:24;;;;;;;8.23;4.45;;;;;;;;;;5012733;28;20030;-68
2023/11/29 09:28:15;;;;;;;10.88;5.80;;;;;;;;;;5012185;28;20510;-68
2023/11/29 09:31:03;;;;;;;9.63;4.82;;;;;;;;;;5012770;28;20112;-68
2023/11/29 09:33:48;;;;;;;8.40;4.85;;;;;;;;;;5012834;28;20026;-68
2023/11/29 09:36:34;;;;;;;9.93;4.70;;;;;;;;;;5013330;28;20510;-68
2023/11/29 09:39:20;;;;;;;6.82;4.63;;;;;;;;;;4997964;28;20022;-68
2023/11/29 09:42:06;;;;;;;11.95;5.05;;;;;;;;;;5012379;28;20026;-68
2023/11/29 09:44:53;;;;;;;6.72;4.55;;;;;;;;;;4997854;28;20094;-69
2023/11/29 09:47:39;;;;;;;5.22;3.95;;;;;;;;;;5013009;28;20511;-68
2023/11/29 09:50:28;;;;;;;8.23;3.75;;;;;;;;;;5012586;28;20034;-68
2023/11/29 09:53:14;;;;;;;10.13;3.78;;;;;;;;;;4998396;28;20056;-68
2023/11/29 09:56:00;;;;;;;4.75;3.42;;;;;;;;;;5012292;28;20105;-69
2023/11/29 09:58:46;;;;;;;8.95;4.57;;;;;;;;;;4987773;28;20033;-68
2023/11/29 10:01:43;;;;;;;6.45;4.20;;;;;;;;;;4978607;28;20046;-68
2023/11/29 10:04:28;;;;;;;8.95;4.93;;;;;;;;;;4985074;28;20371;-68
2023/11/29 10:07:14;;;;;;;8.73;4.00;;;;;;;;;;4991590;28;20057;-68
2023/11/29 10:10:06;;;;;;;11.65;5.05;;;;;;;;;;5000311;28;20018;-68
2023/11/29 10:12:52;;;;;;;10.00;4.03;;;;;;;;;;5010865;28;20030;-68
2023/11/29 10:15:38;;;;;;;7.00;4.00;;;;;;;;;;4997264;28;20052;-68
2023/11/29 10:18:23;;;;;;;8.70;4.93;;;;;;;;;;4992448;28;20443;-68
2023/11/29 10:21:11;;;;;;;8.73;4.65;;;;;;;;;;4996534;28;20411;-70
2023/11/29 10:23:56;;;;;;;5.45;3.83;;;;;;;;;;5012943;28;20399;-69
2023/11/29 10:26:42;;;;;;;8.60;4.47;;;;;;;;;;5015979;28;20022;-68
2023/11/29 10:29:28;;;;;;;7.82;4.43;;;;;;;;;;5015744;28;20026;-69
2023/11/29 10:32:15;;;;;;;6.93;4.57;;;;;;;;;;5000414;28;20014;-68
2023/11/29 10:35:02;;;;;;;12.52;4.28;;;;;;;;;;5001582;28;20022;-69
2023/11/29 10:37:57;;;;;;;7.47;4.15;;;;;;;;;;5001392;28;20041;-69
2023/11/29 10:40:43;;;;;;;8.27;5.63;;;;;;;;;;5000396;28;20081;-69
2023/11/29 10:43:29;;;;;;;9.05;4.53;;;;;;;;;;4995336;28;20049;-69
2023/11/29 10:46:21;;;;;;;8.20;4.95;;;;;;;;;;5002248;28;20026;-69
2023/11/29 10:49:19;;;;;;;8.95;4.50;;;;;;;;;;4982078;28;20092;-69
2023/11/29 10:52:05;;;;;;;9.38;5.10;;;;;;;;;;4990024;28;20022;-68
2023/11/29 10:54:51;;;;;;;12.95;4.68;;;;;;;;;;5000975;28;20037;-69
2023/11/29 10:57:45;;;;;;;6.25;3.95;;;;;;;;;;4999840;28;20022;-69
2023/11/29 11:00:31;;;;;;;6.68;3.60;;;;;;;;;;5000203;28;20081;-69
2023/11/29 11:03:42;;;;;;;8.57;5.07;;;;;;;;;;4998902;28;20029;-69
2023/11/29 11:06:29;;;;;;;7.13;3.97;;;;;;;;;;5014497;28;20032;-69
2023/11/29 11:09:36;;;;;;;6.32;3.72;;;;;;;;;;5014857;28;20566;-68
2023/11/29 11:12:32;;;;;;;7.43;4.05;;;;;;;;;;4994320;28;20116;-68
2023/11/29 11:15:25;;;;;;;8.32;3.65;;;;;;;;;;4985039;28;20045;-69
2023/11/29 11:18:14;;;;;;;11.43;4.88;;;;;;;;;;5000879;28;20053;-69
2023/11/29 11:21:02;;;;;;;14.75;5.30;;;;;;;;;;5014151;28;20104;-69
2023/11/29 11:23:50;;;;;;;7.60;3.67;;;;;;;;;;5015266;28;20096;-69
2023/11/29 11:26:35;;;;;;;7.90;5.03;;;;;;;;;;5000119;28;20025;-69
2023/11/29 11:29:21;;;;;;;8.90;4.22;;;;;;;;;;4988907;28;20380;-69
2023/11/29 11:32:06;;;;;;;10.20;5.88;;;;;;;;;;5005273;28;20034;-68
2023/11/29 11:34:53;;;;;;;6.70;3.55;;;;;;;;;;5012573;28;20450;-68
2023/11/29 11:37:39;;;;;;;12.93;4.78;;;;;;;;;;5015059;28;20018;-68
2023/11/29 11:40:27;;;;;;;9.07;4.25;;;;;;;;;;4999594;28;20026;-69
2023/11/29 11:43:12;;;;;;;7.05;3.30;;;;;;;;;;5015688;28;20030;-69
2023/11/29 11:45:58;;;;;;;6.38;4.10;;;;;;;;;;5000361;28;20026;-68
2023/11/29 11:48:44;;;;;;;7.28;4.30;;;;;;;;;;5010046;28;20551;-68
2023/11/29 11:51:30;;;;;;;6.90;3.95;;;;;;;;;;5012759;28;20022;-68
2023/11/29 11:54:16;;;;;;;4.82;2.67;;;;;;;;;;5014169;28;20417;-68
2023/11/29 11:57:01;;;;;;;8.30;4.45;;;;;;;;;;5013789;28;20018;-68
2023/11/29 11:59:47;;;;;;;10.18;4.50;;;;;;;;;;4999057;28;20026;-68
2023/11/29 12:02:33;;;;;;;8.48;4.45;;;;;;;;;;5013360;28;20038;-68
2023/11/29 12:05:20;;;;;;;9.68;4.53;;;;;;;;;;5014312;28;20030;-69
2023/11/29 12:08:07;;;;;;;12.38;3.45;;;;;;;;;;5014117;28;20034;-69
2023/11/29 12:10:52;;;;;;;11.30;3.70;;;;;;;;;;5013145;28;20056;-68
2023/11/29 12:13:38;;;;;;;9.75;4.85;;;;;;;;;;5013476;28;20022;-68
2023/11/29 12:16:26;;;;;;;6.85;4.22;;;;;;;;;;4995093;28;20030;-68
2023/11/29 12:19:12;;;;;;;7.78;4.28;;;;;;;;;;4967995;28;20022;-68
2023/11/29 12:21:58;;;;;;;7.30;4.07;;;;;;;;;;5002182;28;20088;-68
2023/11/29 12:24:47;;;;;;;7.80;3.85;;;;;;;;;;5012943;28;20026;-69
2023/11/29 12:27:34;;;;;;;8.32;3.58;;;;;;;;;;4997897;28;20029;-68
2023/11/29 12:30:19;;;;;;;7.97;4.32;;;;;;;;;;5013280;28;20030;-68
2023/11/29 12:33:05;;;;;;;5.75;3.92;;;;;;;;;;5000042;28;20025;-68
2023/11/29 12:35:51;;;;;;;6.30;4.97;;;;;;;;;;5014187;28;20031;-68
2023/11/29 12:38:37;;;;;;;8.57;5.22;;;;;;;;;;5014447;28;20022;-68
2023/11/29 12:41:23;;;;;;;6.55;3.88;;;;;;;;;;5013055;28;20029;-68
2023/11/29 12:44:09;;;;;;;8.70;3.47;;;;;;;;;;5011538;28;20025;-68
2023/11/29 12:46:55;;;;;;;11.40;4.28;;;;;;;;;;4993311;28;20023;-68
2023/11/29 12:49:41;;;;;;;6.57;3.55;;;;;;;;;;4992964;28;20611;-68
2023/11/29 12:52:27;;;;;;;7.60;4.05;;;;;;;;;;5009683;28;20410;-68
2023/11/29 12:55:13;;;;;;;6.28;3.85;;;;;;;;;;5012666;28;20026;-68
2023/11/29 12:57:59;;;;;;;5.13;3.90;;;;;;;;;;4995001;28;20100;-68
2023/11/29 13:00:47;;;;;;;9.50;4.18;;;;;;;;;;5012946;28;20105;-68
2023/11/29 13:03:34;;;;;;;7.03;3.92;;;;;;;;;;5013365;28;20072;-69
2023/11/29 13:06:20;;;;;;;6.05;3.63;;;;;;;;;;4998306;28;20018;-69
2023/11/29 13:09:05;;;;;;;6.13;3.53;;;;;;;;;;5012455;28;20133;-69
2023/11/29 13:11:51;;;;;;;8.77;3.72;;;;;;;;;;5012807;28;20607;-70
2023/11/29 13:14:41;;;;;;;6.97;3.65;;;;;;;;;;4988190;28;20034;-69
2023/11/29 13:17:27;;;;;;;6.68;3.85;;;;;;;;;;5012958;28;20030;-69
2023/11/29 13:20:12;;;;;;;6.70;3.08;;;;;;;;;;5011618;28;20024;-69
2023/11/29 13:22:58;;;;;;;5.65;3.65;;;;;;;;;;5001670;28;20041;-69
2023/11/29 13:25:44;;;;;;;8.02;3.90;;;;;;;;;;4992477;28;20500;-69
2023/11/29 13:28:29;;;;;;;17.45;11.00;;;;;;;;;;5003553;28;20032;-69
2023/11/29 13:31:15;;;;;;;7.22;3.63;;;;;;;;;;5012193;28;20092;-69
2023/11/29 13:34:01;;;;;;;20.50;8.77;;;;;;;;;;5010758;28;20026;-69
2023/11/29 13:36:47;;;;;;;50.00;25.23;;;;;;;;;;5012765;28;20029;-69
2023/11/29 13:39:33;;;;;;;59.70;29.90;;;;;;;;;;5013116;28;20105;-69
2023/11/29 13:42:19;;;;;;;31.00;18.98;;;;;;;;;;5012975;28;20022;-69
2023/11/29 13:45:05;;;;;;;21.70;12.35;;;;;;;;;;5012921;28;20022;-69
2023/11/29 13:47:51;;;;;;;7.53;4.88;;;;;;;;;;5012875;28;20088;-69
2023/11/29 13:50:37;;;;;;;7.43;5.18;;;;;;;;;;5012039;28;20053;-69
2023/11/29 13:53:22;;;;;;;13.68;8.18;;;;;;;;;;4997511;28;20107;-69
2023/11/29 13:56:08;;;;;;;13.40;7.25;;;;;;;;;;5002769;28;20101;-69
2023/11/29 13:59:00;;;;;;;35.60;18.58;;;;;;;;;;4993941;28;20030;-69
2023/11/29 14:01:46;;;;;;;19.08;9.45;;;;;;;;;;4999745;28;20503;-68
2023/11/29 14:04:31;;;;;;;20.05;10.30;;;;;;;;;;5015907;28;20022;-68
2023/11/29 14:07:17;;;;;;;22.15;13.07;;;;;;;;;;5016709;28;20399;-69
2023/11/29 14:10:04;;;;;;;27.67;17.77;;;;;;;;;;5017334;28;20032;-69
2023/11/29 14:12:49;;;;;;;15.20;8.40;;;;;;;;;;5015861;28;20022;-69
2023/11/29 14:15:35;;;;;;;13.93;7.35;;;;;;;;;;5016687;28;20029;-69
2023/11/29 14:18:21;;;;;;;22.27;9.82;;;;;;;;;;5015894;28;20034;-69
2023/11/29 14:21:07;;;;;;;24.50;11.70;;;;;;;;;;5011988;28;20410;-69
2023/11/29 14:23:52;;;;;;;9.00;3.92;;;;;;;;;;4996355;28;20084;-68
2023/11/29 14:26:40;;;;;;;6.22;4.05;;;;;;;;;;4997988;28;20025;-68
2023/11/29 14:29:27;;;;;;;9.10;3.72;;;;;;;;;;5001011;28;20427;-69
2023/11/29 14:32:12;;;;;;;6.28;3.47;;;;;;;;;;5011451;28;20090;-70
2023/11/29 14:34:58;;;;;;;6.95;4.53;;;;;;;;;;4995846;28;20030;-69
2023/11/29 14:37:43;;;;;;;8.15;3.72;;;;;;;;;;5001346;28;20022;-69
2023/11/29 14:40:29;;;;;;;10.18;4.15;;;;;;;;;;5015352;28;20026;-69
2023/11/29 14:43:15;;;;;;;10.75;5.75;;;;;;;;;;5000840;28;20527;-69
2023/11/29 14:46:00;;;;;;;6.57;4.25;;;;;;;;;;5015452;28;20022;-69
2023/11/29 14:48:47;;;;;;;13.07;5.95;;;;;;;;;;5015353;28;20030;-69
2023/11/29 14:51:32;;;;;;;14.07;6.68;;;;;;;;;;5016121;28;20018;-69
2023/11/29 14:54:18;;;;;;;10.55;5.80;;;;;;;;;;5011987;28;20033;-69
2023/11/29 14:57:04;;;;;;;10.48;4.75;;;;;;;;;;5014665;28;20033;-69
2023/11/29 14:59:50;;;;;;;7.80;4.03;;;;;;;;;;5012144;28;20064;-70
2023/11/29 15:02:36;;;;;;;6.28;4.13;;;;;;;;;;4996829;28;20034;-69
2023/11/29 15:05:21;;;;;;;8.98;4.75;;;;;;;;;;5013082;28;20541;-69
2023/11/29 15:08:07;;;;;;;10.75;4.53;;;;;;;;;;4995260;28;20081;-69
2023/11/29 15:10:53;;;;;;;8.93;4.65;;;;;;;;;;4981636;28;20506;-69
2023/11/29 15:13:39;;;;;;;8.60;4.75;;;;;;;;;;5011296;28;20410;-69
2023/11/29 15:16:24;;;;;;;13.90;4.80;;;;;;;;;;5014683;28;20030;-69
2023/11/29 15:19:10;;;;;;;16.00;7.35;;;;;;;;;;5014932;28;20133;-69
2023/11/29 15:21:58;;;;;;;15.52;4.90;;;;;;;;;;5014839;28;20040;-69
2023/11/29 15:24:44;;;;;;;9.70;6.13;;;;;;;;;;5014567;28;20017;-69
2023/11/29 15:27:29;;;;;;;9.90;5.65;;;;;;;;;;5015204;28;20029;-69
2023/11/29 15:30:15;;;;;;;11.07;5.78;;;;;;;;;;5000614;28;20026;-69
2023/11/29 15:33:01;;;;;;;8.15;4.80;;;;;;;;;;5010122;28;20033;-69
2023/11/29 15:35:46;;;;;;;15.80;5.07;;;;;;;;;;5011947;28;20034;-70
2023/11/29 15:38:32;;;;;;;11.73;4.82;;;;;;;;;;5000574;28;20018;-71
2023/11/29 15:41:18;;;;;;;13.05;6.22;;;;;;;;;;5009183;28;20503;-71
2023/11/29 15:44:03;;;;;;;10.82;6.35;;;;;;;;;;4993962;28;20478;-71
2023/11/29 15:46:49;;;;;;;13.23;6.82;;;;;;;;;;4994581;28;20045;-71
2023/11/29 15:49:35;;;;;;;14.18;6.38;;;;;;;;;;4996819;28;20034;-71
2023/11/29 15:52:20;;;;;;;14.50;6.25;;;;;;;;;;4980073;28;20561;-71
2023/11/29 15:55:06;;;;;;;11.00;5.63;;;;;;;;;;4995903;28;20041;-71
2023/11/29 15:57:52;;;;;;;14.00;8.55;;;;;;;;;;4994211;28;20018;-71
2023/11/29 16:00:38;;;;;;;17.13;5.85;;;;;;;;;;4993214;28;20081;-71
2023/11/29 16:03:23;;;;;;;18.73;8.25;;;;;;;;;;5013984;28;20088;-71
2023/11/29 16:06:09;;;;;;;16.63;6.88;;;;;;;;;;4994265;28;20030;-71
2023/11/29 16:08:55;;;;;;;10.55;6.15;;;;;;;;;;4995415;28;20026;-71
2023/11/29 16:11:40;;;;;;;9.63;6.07;;;;;;;;;;5004116;28;20037;-71
2023/11/29 16:14:26;;;;;;;13.23;7.30;;;;;;;;;;5013303;28;20034;-71
2023/11/29 16:17:12;;;;;;;15.35;6.55;;;;;;;;;;5011061;28;20088;-71
2023/11/29 16:19:57;;;;;;;13.88;8.00;;;;;;;;;;5012957;28;20105;-71
2023/11/29 16:22:43;;;;;;;9.60;6.65;;;;;;;;;;5009123;28;20022;-70
2023/11/29 16:25:29;;;;;;;7.95;5.38;;;;;;;;;;5013559;28;20040;-70
2023/11/29 16:28:14;;;;;;;8.50;4.63;;;;;;;;;;5010178;28;20028;-71
2023/11/29 16:31:00;;;;;;;11.38;5.88;;;;;;;;;;5013817;28;20052;-71
2023/11/29 16:33:46;;;;;;;27.58;11.43;;;;;;;;;;5014200;28;20057;-72